Terminal Aerodrome Forecast
Issued by NWS

Home | Current Version | Previous Version | Text Only | Print | Product List | Glossary On
Versions: 1 2 3 4 5 6 7 8 9 10 11 12 13 14 15 16 17 18 19
000
FTUS43 KGRR 180325 AAB
TAFMKG
TAF AMD
KMKG 180325Z 1803/1824 27009KT P6SM -SN OVC008
     FM180700 27007KT P6SM BKN040
     FM181200 18008KT P6SM BKN150
     FM181800 18015G25KT P6SM BKN250=

USA.gov is the U.S. government's official web portal to all federal, state and local government web resources and services.